createdAt,value
2023-03-30T00:00:20.635Z,100937.28
2023-03-30T00:02:49.546Z,100979.00
2023-03-30T00:05:20.914Z,100949.63
2023-03-30T00:07:48.079Z,100948.06
2023-03-30T00:10:19.206Z,100948.16
2023-03-30T00:12:47.478Z,100960.84
2023-03-30T00:15:15.530Z,100943.63
2023-03-30T00:17:42.501Z,100979.16
2023-03-30T00:20:11.974Z,100966.44
2023-03-30T00:22:39.253Z,100972.00
2023-03-30T00:25:08.819Z,100976.00
2023-03-30T00:27:36.482Z,100863.03
2023-03-30T00:30:07.842Z,100960.69
2023-03-30T00:32:34.924Z,100943.69
2023-03-30T00:35:01.988Z,100946.91
2023-03-30T00:37:29.848Z,100911.22
2023-03-30T00:39:56.887Z,100915.53
2023-03-30T00:42:23.842Z,100915.16
2023-03-30T00:45:16.413Z,100921.72
2023-03-30T00:47:59.976Z,100873.00
2023-03-30T00:50:48.534Z,100895.53
2023-03-30T00:53:21.594Z,100874.47
2023-03-30T00:55:49.356Z,100898.19
2023-03-30T00:58:16.574Z,100894.13
2023-03-30T01:00:43.645Z,100881.09
2023-03-30T01:03:17.723Z,100922.78
2023-03-30T01:05:45.044Z,100923.59
2023-03-30T01:08:14.161Z,100930.09
2023-03-30T01:10:41.260Z,100916.47
2023-03-30T01:13:08.175Z,100932.28
2023-03-30T01:15:36.196Z,100902.72
2023-03-30T01:18:09.025Z,100922.13
2023-03-30T01:21:14.310Z,100927.78
2023-03-30T01:24:18.533Z,100929.44
2023-03-30T01:26:51.846Z,100898.75
2023-03-30T01:29:25.299Z,100915.13
2023-03-30T01:32:01.289Z,100914.78
2023-03-30T01:34:44.281Z,100900.03
2023-03-30T01:37:43.592Z,100904.50
2023-03-30T01:40:13.977Z,100908.19
2023-03-30T01:42:43.589Z,100918.00
2023-03-30T01:45:15.683Z,100885.59
2023-03-30T01:48:07.193Z,100918.97
2023-03-30T01:50:38.334Z,100915.13
2023-03-30T01:53:18.543Z,100896.06
2023-03-30T01:56:06.844Z,100929.75
2023-03-30T01:58:43.734Z,100885.94
2023-03-30T02:01:11.163Z,100869.47
2023-03-30T02:03:39.364Z,100928.75
2023-03-30T02:06:21.867Z,100905.69
2023-03-30T02:08:49.693Z,100920.66
2023-03-30T02:11:16.631Z,100948.66
2023-03-30T02:13:43.499Z,100909.81
2023-03-30T02:16:16.930Z,100940.47
2023-03-30T02:18:43.869Z,100904.88
2023-03-30T02:21:10.670Z,100932.19
2023-03-30T02:23:39.580Z,100896.59
2023-03-30T02:26:08.339Z,100928.06
2023-03-30T02:28:35.504Z,100932.19
2023-03-30T02:31:02.744Z,100908.00
2023-03-30T02:33:59.419Z,100928.75
2023-03-30T02:36:48.138Z,100927.56
2023-03-30T02:39:17.949Z,100939.72
2023-03-30T02:42:00.724Z,100923.91
2023-03-30T02:44:55.369Z,100916.53
2023-03-30T02:47:54.103Z,100880.50
2023-03-30T02:50:39.104Z,100893.09
2023-03-30T02:53:27.547Z,100893.09
2023-03-30T02:56:07.162Z,100902.41
2023-03-30T02:58:36.508Z,100888.59
2023-03-30T03:01:06.000Z,100851.34
2023-03-30T03:03:37.491Z,100889.78
2023-03-30T03:06:04.495Z,100903.38
2023-03-30T03:08:34.706Z,100901.53
2023-03-30T03:11:01.731Z,100918.78
2023-03-30T03:13:28.683Z,100892.06
2023-03-30T03:15:58.261Z,100832.44
2023-03-30T03:18:25.081Z,100861.09
2023-03-30T03:20:53.323Z,100892.56
2023-03-30T03:23:20.355Z,100810.97
2023-03-30T03:25:48.528Z,100847.63
2023-03-30T03:28:15.610Z,100852.63
2023-03-30T03:30:42.930Z,100891.78
2023-03-30T03:33:09.937Z,100918.50
2023-03-30T03:35:39.543Z,100905.13
2023-03-30T03:38:07.829Z,100904.22
2023-03-30T03:40:34.786Z,100898.53
2023-03-30T03:43:01.873Z,100906.56
2023-03-30T03:45:28.728Z,100920.34
2023-03-30T03:47:55.740Z,100914.50
2023-03-30T03:50:22.640Z,100904.69
2023-03-30T03:52:49.594Z,100906.56
2023-03-30T03:55:16.446Z,100912.22
2023-03-30T03:57:45.195Z,100892.56
2023-03-30T04:00:24.323Z,100898.84
2023-03-30T04:02:51.087Z,100921.59
2023-03-30T04:05:17.889Z,100894.88
2023-03-30T04:07:46.565Z,100911.50
2023-03-30T04:10:13.674Z,100928.41
2023-03-30T04:12:40.454Z,100927.06
2023-03-30T04:15:07.970Z,100931.47
2023-03-30T04:17:35.397Z,100898.88
2023-03-30T04:20:06.310Z,100928.16
2023-03-30T04:22:42.218Z,100901.84
2023-03-30T04:25:09.906Z,100929.41
2023-03-30T04:27:37.833Z,100931.69
2023-03-30T04:30:08.589Z,100916.66
2023-03-30T04:32:38.957Z,100931.31
2023-03-30T04:35:06.439Z,100939.00
2023-03-30T04:37:33.395Z,100943.19
2023-03-30T04:40:01.750Z,100941.19
2023-03-30T04:42:30.759Z,100944.84
2023-03-30T04:44:58.170Z,100937.34
2023-03-30T04:47:25.926Z,100941.00
2023-03-30T04:49:52.723Z,100957.00
2023-03-30T04:52:19.736Z,100956.09
2023-03-30T04:54:46.682Z,100941.19
2023-03-30T04:57:14.269Z,100943.66
2023-03-30T04:59:41.629Z,100955.88
2023-03-30T05:02:09.081Z,100925.50
2023-03-30T05:04:36.026Z,100961.00
2023-03-30T05:07:03.018Z,100948.06
2023-03-30T05:09:29.835Z,100947.72
2023-03-30T05:11:56.729Z,100945.22
2023-03-30T05:14:23.632Z,100918.28
2023-03-30T05:16:50.411Z,100954.53
2023-03-30T05:19:17.339Z,100889.38
2023-03-30T05:21:44.472Z,100866.00
2023-03-30T05:24:13.142Z,100926.72
2023-03-30T05:26:40.006Z,100922.97
2023-03-30T05:29:06.864Z,100941.78
2023-03-30T05:31:33.635Z,100929.69
2023-03-30T05:34:00.604Z,100941.56
2023-03-30T05:36:27.548Z,100948.69
2023-03-30T05:38:54.295Z,100942.84
2023-03-30T05:41:21.275Z,100934.38
2023-03-30T05:43:49.248Z,100939.38
2023-03-30T05:46:16.050Z,100933.41
2023-03-30T05:48:42.856Z,100949.00
2023-03-30T05:51:09.882Z,100953.50
2023-03-30T05:53:36.839Z,100951.31
2023-03-30T05:56:03.710Z,100946.00
2023-03-30T05:58:31.042Z,100930.94
2023-03-30T06:00:58.567Z,100904.75
2023-03-30T06:03:25.481Z,100920.38
2023-03-30T06:05:53.865Z,100929.09
2023-03-30T06:08:22.592Z,100947.78
2023-03-30T06:10:53.939Z,100925.31
2023-03-30T06:13:20.844Z,100944.53
2023-03-30T06:15:47.720Z,100946.34
2023-03-30T06:18:14.583Z,100915.94
2023-03-30T06:20:41.453Z,100943.53
2023-03-30T06:23:08.207Z,100976.84
2023-03-30T06:25:36.018Z,100981.03
2023-03-30T06:28:03.266Z,100934.13
2023-03-30T06:30:30.190Z,100976.56
2023-03-30T06:32:57.179Z,100986.16
2023-03-30T06:35:24.217Z,100994.50
2023-03-30T06:37:51.028Z,101000.16
2023-03-30T06:40:19.267Z,100971.94
2023-03-30T06:42:46.199Z,101005.47
2023-03-30T06:45:13.789Z,101000.69
2023-03-30T06:47:41.791Z,100971.63
2023-03-30T06:50:09.324Z,100966.50
2023-03-30T06:52:39.233Z,100970.06
2023-03-30T06:55:06.473Z,100987.91
2023-03-30T06:57:33.293Z,100999.63
2023-03-30T07:00:00.196Z,101006.44
2023-03-30T07:02:27.946Z,100970.16
2023-03-30T07:04:54.882Z,101009.56
2023-03-30T07:07:21.747Z,101005.25
2023-03-30T07:09:48.593Z,101020.44
2023-03-30T07:12:15.516Z,100936.81
2023-03-30T07:14:42.404Z,101015.00
2023-03-30T07:17:09.365Z,101016.69
2023-03-30T07:19:36.931Z,101008.22
2023-03-30T07:22:04.473Z,100963.16
2023-03-30T07:24:31.682Z,100990.94
2023-03-30T07:26:58.548Z,101000.97
2023-03-30T07:29:27.231Z,101003.09
2023-03-30T07:31:56.741Z,100950.31
2023-03-30T07:34:23.664Z,101004.13
2023-03-30T07:36:50.770Z,101029.59
2023-03-30T07:39:18.064Z,101037.97
2023-03-30T07:41:44.906Z,101021.03
2023-03-30T07:44:11.724Z,101036.94
2023-03-30T07:46:39.088Z,101028.94
2023-03-30T07:49:06.233Z,100933.69
2023-03-30T07:51:33.519Z,101022.69
2023-03-30T07:54:00.830Z,101004.84
2023-03-30T07:56:27.576Z,101031.09
2023-03-30T07:58:54.347Z,101031.94
2023-03-30T08:01:21.349Z,101039.78
2023-03-30T08:03:48.491Z,101038.59
2023-03-30T08:06:15.731Z,101062.56
2023-03-30T08:08:43.685Z,101053.25
2023-03-30T08:11:11.454Z,101066.84
2023-03-30T08:13:40.018Z,101040.06
2023-03-30T08:16:09.189Z,101067.25
2023-03-30T08:18:37.242Z,101083.34
2023-03-30T08:21:04.405Z,101071.03
2023-03-30T08:23:31.933Z,101090.66
2023-03-30T08:25:59.536Z,101082.94
2023-03-30T08:28:26.528Z,101085.84
2023-03-30T08:30:53.525Z,101074.78
2023-03-30T08:33:20.523Z,101094.34
2023-03-30T08:35:48.258Z,101066.50
2023-03-30T08:38:17.940Z,101109.13
2023-03-30T08:40:45.455Z,101094.88
2023-03-30T08:43:37.300Z,101097.13
2023-03-30T08:46:04.304Z,101118.03
2023-03-30T08:48:33.644Z,101054.84
2023-03-30T08:51:23.592Z,101078.38
2023-03-30T08:53:58.335Z,101086.41
2023-03-30T08:56:29.281Z,101087.75
2023-03-30T08:59:17.267Z,101099.00
2023-03-30T09:01:53.398Z,101098.28
2023-03-30T09:04:33.993Z,101080.81
2023-03-30T09:07:07.977Z,101090.41
2023-03-30T09:09:40.768Z,101080.50
2023-03-30T09:12:34.516Z,101088.28
2023-03-30T09:15:23.119Z,101096.31
2023-03-30T09:18:17.928Z,101072.53
2023-03-30T09:20:46.071Z,101111.03
2023-03-30T09:23:14.412Z,101101.88
2023-03-30T09:26:11.477Z,101089.03
2023-03-30T09:29:01.290Z,101090.72
2023-03-30T09:31:33.327Z,101100.25
2023-03-30T09:34:07.148Z,101098.75
2023-03-30T09:36:40.065Z,101068.13
2023-03-30T09:39:13.638Z,101066.13
2023-03-30T09:42:13.139Z,101105.03
2023-03-30T09:44:48.051Z,101101.00
2023-03-30T09:47:21.144Z,101106.34
2023-03-30T09:49:47.969Z,101113.53
2023-03-30T09:52:22.638Z,101068.47
2023-03-30T09:54:49.457Z,101093.22
2023-03-30T09:57:36.540Z,101097.13
2023-03-30T10:00:04.999Z,101035.44
2023-03-30T10:02:34.045Z,101099.28
2023-03-30T10:05:02.640Z,101108.72
2023-03-30T10:07:37.907Z,101095.56
2023-03-30T10:10:13.961Z,101135.13
2023-03-30T10:12:40.908Z,101130.81
2023-03-30T10:15:14.774Z,101140.09
2023-03-30T10:17:41.578Z,101159.13
2023-03-30T10:20:27.101Z,101121.25
2023-03-30T10:23:01.790Z,101160.94
2023-03-30T10:25:29.797Z,101159.63
2023-03-30T10:27:58.321Z,101142.28
2023-03-30T10:30:27.249Z,101149.88
2023-03-30T10:32:55.134Z,101146.03
2023-03-30T10:35:26.497Z,101143.72
2023-03-30T10:37:54.830Z,101158.97
2023-03-30T10:40:32.746Z,101159.88
2023-03-30T10:43:00.831Z,101148.44
2023-03-30T10:45:33.093Z,101149.88
2023-03-30T10:48:03.005Z,101170.91
2023-03-30T10:50:50.826Z,101161.34
2023-03-30T10:53:30.103Z,101183.84
2023-03-30T10:56:06.213Z,101180.41
2023-03-30T10:59:27.248Z,101180.00
2023-03-30T11:02:17.855Z,101178.38
2023-03-30T11:05:06.674Z,101188.03
2023-03-30T11:07:49.624Z,101174.66
2023-03-30T11:10:21.531Z,101173.81
2023-03-30T11:12:55.209Z,101140.91
2023-03-30T11:15:27.530Z,101172.19
2023-03-30T11:17:59.793Z,101138.41
2023-03-30T11:20:29.360Z,101171.50
2023-03-30T11:25:27.837Z,101177.19
2023-03-30T11:28:04.263Z,101185.41
2023-03-30T11:30:31.835Z,101177.66
2023-03-30T11:33:32.764Z,101160.88
2023-03-30T11:36:17.751Z,101125.88
2023-03-30T11:38:59.331Z,101166.56
2023-03-30T11:41:36.706Z,101161.06
2023-03-30T11:44:03.969Z,101153.13
2023-03-30T11:46:39.883Z,101130.50
2023-03-30T11:49:13.556Z,101153.53
2023-03-30T11:51:49.718Z,101152.91
2023-03-30T11:54:28.721Z,101147.75
2023-03-30T11:57:11.277Z,101159.13
2023-03-30T11:59:57.542Z,101174.09
2023-03-30T12:02:39.619Z,101174.28
2023-03-30T12:05:28.504Z,101172.44
2023-03-30T12:08:07.220Z,101160.25
2023-03-30T12:10:41.671Z,101128.69
2023-03-30T12:13:15.797Z,101120.03
2023-03-30T12:15:46.146Z,101121.88
2023-03-30T12:18:33.377Z,101127.88
2023-03-30T12:21:12.255Z,101119.19
2023-03-30T12:23:54.654Z,101120.16
2023-03-30T12:26:25.804Z,101083.09
2023-03-30T12:29:48.150Z,101115.00
2023-03-30T12:31:59.472Z,101110.31
2023-03-30T12:34:27.762Z,101130.19
2023-03-30T12:37:14.840Z,101135.84
2023-03-30T12:39:55.234Z,101132.50
2023-03-30T12:42:34.454Z,101139.84
2023-03-30T12:45:12.125Z,101136.19
2023-03-30T12:48:05.332Z,101145.94
2023-03-30T12:50:52.384Z,101164.66
2023-03-30T12:53:37.774Z,101155.63
2023-03-30T12:56:07.740Z,101154.78
2023-03-30T12:59:00.360Z,101172.81
2023-03-30T13:01:39.850Z,101172.66
2023-03-30T13:04:09.334Z,101168.94
2023-03-30T13:06:37.683Z,101171.47
2023-03-30T13:09:16.629Z,101146.09
2023-03-30T13:12:06.456Z,101129.41
2023-03-30T13:14:36.069Z,101137.28
2023-03-30T13:17:06.563Z,101124.25
2023-03-30T13:19:33.455Z,101104.41
2023-03-30T13:22:12.477Z,101098.69
2023-03-30T13:24:41.180Z,101136.22
2023-03-30T13:27:14.217Z,101153.53
2023-03-30T13:29:41.780Z,101163.38
2023-03-30T13:32:38.505Z,101184.88
2023-03-30T13:35:33.233Z,101185.88
2023-03-30T13:38:12.398Z,101166.97
2023-03-30T13:41:23.536Z,101150.63
2023-03-30T13:44:03.856Z,101167.81
2023-03-30T13:46:50.469Z,101142.66
2023-03-30T13:49:26.357Z,101154.16
2023-03-30T13:51:53.366Z,101111.13
2023-03-30T13:54:24.433Z,101094.78
2023-03-30T13:57:03.840Z,101079.56
2023-03-30T13:59:32.040Z,101096.25
2023-03-30T14:02:00.175Z,101076.19
2023-03-30T14:04:32.373Z,101114.03
2023-03-30T14:07:14.469Z,101130.56
2023-03-30T14:09:41.544Z,101109.69
2023-03-30T14:12:08.482Z,101046.97
2023-03-30T14:14:42.066Z,101089.38
2023-03-30T14:17:22.443Z,101087.03
2023-03-30T14:20:07.113Z,101078.47
2023-03-30T14:22:37.287Z,101059.06
2023-03-30T14:25:05.586Z,101082.84
2023-03-30T14:27:33.701Z,101095.34
2023-03-30T14:30:00.680Z,101116.97
2023-03-30T14:32:27.618Z,101111.81
2023-03-30T14:34:54.673Z,101098.16
2023-03-30T14:37:23.179Z,101098.16
2023-03-30T14:39:56.300Z,101097.13
2023-03-30T14:42:27.681Z,101094.31
2023-03-30T14:44:56.441Z,101063.25
2023-03-30T14:47:24.576Z,101090.81
2023-03-30T14:49:52.291Z,101086.47
2023-03-30T14:52:24.451Z,101079.47
2023-03-30T14:55:05.159Z,101088.94
2023-03-30T14:57:38.367Z,101091.09
2023-03-30T15:00:22.755Z,101085.59
2023-03-30T15:03:02.567Z,101089.44
2023-03-30T15:05:40.657Z,101083.91
2023-03-30T15:08:11.847Z,101080.06
2023-03-30T15:11:08.928Z,101081.72
2023-03-30T15:13:37.642Z,101054.16
2023-03-30T15:16:04.878Z,101068.38
2023-03-30T15:18:31.736Z,101101.59
2023-03-30T15:20:58.541Z,101057.22
2023-03-30T15:23:25.472Z,101094.59
2023-03-30T15:25:52.460Z,101088.75
2023-03-30T15:28:20.760Z,101045.38
2023-03-30T15:30:50.882Z,101083.06
2023-03-30T15:33:31.272Z,101048.66
2023-03-30T15:36:02.002Z,101071.88
2023-03-30T15:38:34.411Z,101035.69
2023-03-30T15:41:02.510Z,101078.84
2023-03-30T15:43:33.575Z,101060.94
2023-03-30T15:46:13.744Z,101041.81
2023-03-30T15:48:45.593Z,101019.34
2023-03-30T15:51:16.783Z,101047.38
2023-03-30T15:53:49.572Z,101059.59
2023-03-30T15:56:25.518Z,101013.34
2023-03-30T15:58:52.314Z,101043.13
2023-03-30T16:01:19.209Z,101046.38
2023-03-30T16:03:55.515Z,101013.38
2023-03-30T16:06:23.099Z,100995.63
2023-03-30T16:08:50.111Z,101045.00
2023-03-30T16:11:18.679Z,101058.53
2023-03-30T16:13:46.707Z,101048.84
2023-03-30T16:16:14.514Z,101039.22
2023-03-30T16:18:42.721Z,101026.50
2023-03-30T16:21:11.098Z,101055.63
2023-03-30T16:23:38.504Z,101061.97
2023-03-30T16:26:06.228Z,101010.97
2023-03-30T16:28:33.149Z,101077.91
2023-03-30T16:31:01.520Z,101056.91
2023-03-30T16:33:28.269Z,101060.38
2023-03-30T16:35:55.107Z,101036.53
2023-03-30T16:38:22.019Z,101029.38
2023-03-30T16:40:53.210Z,101014.59
2023-03-30T16:43:20.078Z,101043.03
2023-03-30T16:45:47.060Z,101053.09
2023-03-30T16:48:15.130Z,101077.41
2023-03-30T16:50:43.500Z,101075.09
2023-03-30T16:53:10.444Z,101036.34
2023-03-30T16:55:37.838Z,101055.09
2023-03-30T16:58:05.294Z,101035.94
2023-03-30T17:00:33.948Z,101041.78
2023-03-30T17:03:00.864Z,101045.44
2023-03-30T17:05:27.730Z,100982.75
2023-03-30T17:07:54.866Z,101052.72
2023-03-30T17:10:29.104Z,101034.34
2023-03-30T17:12:56.415Z,101062.28
2023-03-30T17:15:24.921Z,101052.66
2023-03-30T17:17:52.312Z,101060.50
2023-03-30T17:20:23.601Z,101059.22
2023-03-30T17:22:50.938Z,101067.16
2023-03-30T17:25:20.822Z,101041.50
2023-03-30T17:27:48.988Z,101081.66
2023-03-30T17:30:18.459Z,101039.31
2023-03-30T17:32:45.367Z,101054.72
2023-03-30T17:35:12.269Z,101086.28
2023-03-30T17:37:39.563Z,101085.84
2023-03-30T17:40:23.471Z,101042.88
2023-03-30T17:42:50.811Z,101097.38
2023-03-30T17:45:18.978Z,101093.94
2023-03-30T17:47:45.879Z,101043.84
2023-03-30T17:50:24.594Z,101071.25
2023-03-30T17:52:51.706Z,101061.53
2023-03-30T17:55:19.310Z,101100.84
2023-03-30T17:57:46.258Z,101114.97
2023-03-30T18:00:17.385Z,101075.41
2023-03-30T18:02:44.182Z,101118.22
2023-03-30T18:05:11.527Z,101031.75
2023-03-30T18:07:38.459Z,101102.19
2023-03-30T18:10:17.716Z,101101.56
2023-03-30T18:12:44.516Z,101099.69
2023-03-30T18:15:11.559Z,101103.88
2023-03-30T18:17:38.636Z,101101.69
2023-03-30T18:20:34.176Z,101101.47
2023-03-30T18:23:01.244Z,101098.53
2023-03-30T18:25:32.470Z,101040.91
2023-03-30T18:28:00.548Z,101069.69
2023-03-30T18:30:31.968Z,101096.97
2023-03-30T18:32:58.994Z,101103.75
2023-03-30T18:35:27.719Z,101100.53
2023-03-30T18:37:54.909Z,101098.25
2023-03-30T18:40:26.813Z,101102.59
2023-03-30T18:42:53.708Z,101092.25
2023-03-30T18:45:27.382Z,101099.91
2023-03-30T18:47:55.064Z,101117.47
2023-03-30T18:50:44.926Z,101093.84
2023-03-30T18:53:13.446Z,101111.91
2023-03-30T18:55:42.078Z,101087.97
2023-03-30T18:58:28.410Z,101083.47
2023-03-30T19:00:55.739Z,101066.44
2023-03-30T19:03:22.993Z,101090.88
2023-03-30T19:05:50.539Z,101079.59
2023-03-30T19:08:19.021Z,101056.72
2023-03-30T19:10:46.345Z,101076.06
2023-03-30T19:13:14.238Z,100999.97
2023-03-30T19:15:41.343Z,101084.00
2023-03-30T19:18:08.542Z,101101.22
2023-03-30T19:20:37.976Z,101064.72
2023-03-30T19:23:04.791Z,101099.47
2023-03-30T19:25:31.569Z,101093.50
2023-03-30T19:28:03.577Z,101092.34
2023-03-30T19:30:32.878Z,101056.59
2023-03-30T19:33:02.184Z,101095.16
2023-03-30T19:35:29.159Z,101082.41
2023-03-30T19:37:56.206Z,101045.59
2023-03-30T19:40:23.142Z,101098.19
2023-03-30T19:42:50.371Z,101103.00
2023-03-30T19:45:18.835Z,101077.56
2023-03-30T19:47:45.791Z,101112.09
2023-03-30T19:50:18.190Z,101116.91
2023-03-30T19:52:48.740Z,101086.91
2023-03-30T19:55:15.886Z,101121.72
2023-03-30T19:57:42.688Z,101136.66
2023-03-30T20:00:13.099Z,101116.19
2023-03-30T20:02:41.280Z,101133.56
2023-03-30T20:05:10.327Z,101135.53
2023-03-30T20:07:37.549Z,101122.88
2023-03-30T20:10:05.513Z,101016.78
2023-03-30T20:12:32.403Z,101102.50
2023-03-30T20:15:00.173Z,101099.88
2023-03-30T20:17:30.075Z,101117.53
2023-03-30T20:19:58.221Z,101131.84
2023-03-30T20:22:25.708Z,101075.81
2023-03-30T20:24:52.438Z,101119.72
2023-03-30T20:27:19.344Z,101123.94
2023-03-30T20:29:46.268Z,101123.72
2023-03-30T20:32:13.077Z,101116.69
2023-03-30T20:34:40.363Z,100992.81
2023-03-30T20:37:07.202Z,101124.34
2023-03-30T20:39:34.357Z,101131.63
2023-03-30T20:42:02.112Z,101100.16
2023-03-30T20:44:31.973Z,101123.06
2023-03-30T20:46:58.783Z,101137.91
2023-03-30T20:49:25.990Z,101135.63
2023-03-30T20:51:53.426Z,101144.91
2023-03-30T20:54:20.804Z,101143.97
2023-03-30T20:56:47.764Z,101154.41
2023-03-30T20:59:14.678Z,101126.03
2023-03-30T21:01:41.547Z,101134.53
2023-03-30T21:04:08.443Z,101045.22
2023-03-30T21:06:35.424Z,101107.88
2023-03-30T21:09:04.096Z,101129.84
2023-03-30T21:11:33.584Z,101145.00
2023-03-30T21:14:01.689Z,101066.03
2023-03-30T21:16:28.645Z,101133.56
2023-03-30T21:18:55.562Z,101133.06
2023-03-30T21:21:22.489Z,101104.63
2023-03-30T21:23:49.350Z,101121.78
2023-03-30T21:26:18.642Z,101131.53
2023-03-30T21:28:45.688Z,101085.91
2023-03-30T21:31:14.390Z,101116.34
2023-03-30T21:33:41.474Z,101113.25
2023-03-30T21:36:09.050Z,101140.91
2023-03-30T21:38:36.476Z,101083.34
2023-03-30T21:41:14.080Z,101114.31
2023-03-30T21:43:44.138Z,101111.38
2023-03-30T21:46:13.476Z,101101.97
2023-03-30T21:48:41.602Z,101002.06
2023-03-30T21:51:09.282Z,101127.25
2023-03-30T21:53:36.401Z,101121.09
2023-03-30T21:56:03.494Z,101111.16
2023-03-30T21:58:30.349Z,101071.91
2023-03-30T22:01:08.875Z,101103.19
2023-03-30T22:03:38.686Z,101104.91
2023-03-30T22:06:07.094Z,101102.81
2023-03-30T22:08:34.239Z,101108.78
2023-03-30T22:11:12.803Z,101105.94
2023-03-30T22:13:39.723Z,101025.94
2023-03-30T22:16:12.925Z,101112.22
2023-03-30T22:18:40.349Z,101088.75
2023-03-30T22:21:08.658Z,101107.41
2023-03-30T22:23:35.691Z,101120.13
2023-03-30T22:26:02.476Z,101045.81
2023-03-30T22:28:29.837Z,101082.69
2023-03-30T22:30:56.668Z,101118.53
2023-03-30T22:33:23.432Z,101015.22
2023-03-30T22:35:50.197Z,101122.44
2023-03-30T22:38:17.051Z,101081.69
2023-03-30T22:40:43.831Z,101086.41
2023-03-30T22:43:11.447Z,101115.31
2023-03-30T22:45:38.699Z,101076.19
2023-03-30T22:48:06.084Z,101118.69
2023-03-30T22:50:34.102Z,101126.31
2023-03-30T22:53:01.076Z,101131.94
2023-03-30T22:55:28.821Z,101086.09
2023-03-30T22:57:57.072Z,101124.63
2023-03-30T23:00:23.911Z,101122.31
2023-03-30T23:02:51.542Z,101120.34
2023-03-30T23:05:21.444Z,101123.38
2023-03-30T23:07:49.144Z,101122.16
2023-03-30T23:10:18.420Z,101105.03
2023-03-30T23:12:45.764Z,101082.25
2023-03-30T23:15:12.726Z,101092.75
2023-03-30T23:17:39.823Z,101099.72
2023-03-30T23:20:08.349Z,101037.03
2023-03-30T23:22:35.289Z,101100.16
2023-03-30T23:25:02.017Z,101089.69
2023-03-30T23:27:28.755Z,101076.44
2023-03-30T23:29:55.919Z,101090.31
2023-03-30T23:32:22.642Z,101050.88
2023-03-30T23:34:49.377Z,101094.72
2023-03-30T23:37:17.766Z,101108.50
2023-03-30T23:39:44.618Z,101093.03
2023-03-30T23:42:11.846Z,101059.16
2023-03-30T23:44:38.704Z,101071.41
2023-03-30T23:47:05.494Z,101084.91
2023-03-30T23:49:32.194Z,101061.25
2023-03-30T23:51:59.090Z,101100.38
2023-03-30T23:54:25.905Z,101073.88
2023-03-30T23:56:57.367Z,101097.44
2023-03-30T23:59:24.778Z,101102.22
